Time;durP1;ratioP1;P1;durP2;ratioP2;P2;SDS_P1;SDS_P2;PMS_P1;PMS_P2;Temp;Humidity;BMP_temperature;BMP_pressure;BME280_temperature;BME280_humidity;BME280_pressure;Samples;Min_cycle;Max_cycle;Signal;HPM_P1;HPM_P2
2022/03/04 00:00:19;;;;;;;23.15;14.75;;;;;;;2.84;67.79;101975.00;10400721;28;20045;-72
2022/03/04 00:05:19;;;;;;;19.80;12.82;;;;;;;2.78;68.26;101977.19;10417213;28;20124;-73
2022/03/04 00:10:20;;;;;;;12.30;9.93;;;;;;;2.73;68.43;101970.50;10416955;28;20428;-73
2022/03/04 00:15:21;;;;;;;13.55;11.50;;;;;;;2.68;69.31;101986.91;10417279;28;20033;-73
2022/03/04 00:20:21;;;;;;;21.25;14.23;;;;;;;2.56;69.72;101980.69;10398524;28;20227;-72
2022/03/04 00:25:22;;;;;;;30.63;16.30;;;;;;;2.54;69.23;101979.94;10417197;28;20029;-73
2022/03/04 00:30:22;;;;;;;20.17;11.80;;;;;;;2.40;70.57;101976.66;10398328;28;20473;-72
2022/03/04 00:35:22;;;;;;;14.10;11.10;;;;;;;2.32;70.83;101982.56;10415767;28;20033;-72
2022/03/04 00:40:23;;;;;;;26.15;14.50;;;;;;;2.28;70.68;101989.97;10415100;28;20465;-73
2022/03/04 00:45:23;;;;;;;22.77;15.55;;;;;;;2.17;71.38;101986.41;10415526;28;20033;-73
2022/03/04 00:50:24;;;;;;;23.63;14.68;;;;;;;2.07;72.58;101996.94;10415796;28;20120;-72
2022/03/04 00:55:24;;;;;;;24.05;14.20;;;;;;;1.98;72.69;101995.81;10415318;28;20054;-72
2022/03/04 01:00:25;;;;;;;23.27;14.45;;;;;;;1.88;73.36;101994.78;10415031;28;20038;-73
2022/03/04 01:05:25;;;;;;;19.73;13.65;;;;;;;1.84;74.01;101995.97;10414981;28;20084;-72
2022/03/04 01:10:26;;;;;;;23.58;15.63;;;;;;;1.76;74.41;101998.38;10397273;28;20060;-73
2022/03/04 01:15:26;;;;;;;19.40;14.35;;;;;;;1.76;74.97;102001.91;10386757;28;20041;-73
2022/03/04 01:20:26;;;;;;;18.75;14.18;;;;;;;1.71;75.70;102000.53;10389190;28;20040;-72
2022/03/04 01:25:27;;;;;;;27.17;15.48;;;;;;;1.62;75.57;101997.56;10421751;28;20464;-73
2022/03/04 01:30:27;;;;;;;20.30;13.30;;;;;;;1.57;75.50;101991.72;10405147;28;20030;-73
2022/03/04 01:35:29;;;;;;;13.43;10.43;;;;;;;1.46;76.41;101988.97;10422148;28;20038;-73
2022/03/04 01:40:29;;;;;;;19.73;9.48;;;;;;;1.40;77.72;101989.41;10423357;28;20045;-74
2022/03/04 01:45:29;;;;;;;22.90;16.38;;;;;;;1.39;77.78;101985.03;10423820;28;20044;-75
2022/03/04 01:50:30;;;;;;;15.75;13.35;;;;;;;1.35;78.11;101980.91;10429172;28;20069;-75
2022/03/04 01:55:30;;;;;;;19.42;13.02;;;;;;;1.27;78.98;101988.59;10443747;28;20053;-74
2022/03/04 02:00:31;;;;;;;20.73;14.45;;;;;;;1.22;79.20;101991.59;10445479;28;20041;-74
2022/03/04 02:05:31;;;;;;;19.55;14.13;;;;;;;1.12;79.67;101982.56;10463230;28;20048;-74
2022/03/04 02:10:32;;;;;;;22.05;15.05;;;;;;;1.09;79.79;101977.44;10447353;28;20098;-74
2022/03/04 02:15:32;;;;;;;27.95;18.13;;;;;;;1.03;80.56;101972.53;10463809;28;20132;-74
2022/03/04 02:20:33;;;;;;;26.80;15.85;;;;;;;0.97;81.18;101973.81;10468039;28;20405;-74
2022/03/04 02:25:33;;;;;;;21.23;16.40;;;;;;;0.88;81.82;101967.31;10427052;28;20102;-74
2022/03/04 02:30:34;;;;;;;25.58;18.70;;;;;;;0.83;82.62;101964.16;10462462;28;20069;-75
2022/03/04 02:35:34;;;;;;;36.58;19.98;;;;;;;0.87;82.08;101968.28;10462757;28;20043;-74
2022/03/04 02:40:35;;;;;;;30.33;15.35;;;;;;;0.81;82.47;101958.06;10465740;28;20483;-74
2022/03/04 02:45:35;;;;;;;27.63;18.73;;;;;;;0.79;82.85;101959.97;10464646;28;20473;-75
2022/03/04 02:50:35;;;;;;;35.90;19.25;;;;;;;0.80;82.97;101961.69;10451123;28;20048;-74
2022/03/04 02:55:36;;;;;;;26.88;18.42;;;;;;;0.77;81.87;101956.56;10462164;28;20053;-74
2022/03/04 03:00:36;;;;;;;20.13;13.20;;;;;;;0.77;82.38;101956.56;10461570;28;20033;-74
2022/03/04 03:05:37;;;;;;;22.13;15.50;;;;;;;0.71;83.08;101958.81;10443660;28;20037;-74
2022/03/04 03:10:38;;;;;;;32.70;19.08;;;;;;;0.66;83.33;101951.97;10442856;28;20033;-74
2022/03/04 03:15:38;;;;;;;26.60;17.10;;;;;;;0.65;83.29;101963.59;10444722;28;20064;-74
2022/03/04 03:20:38;;;;;;;28.52;19.25;;;;;;;0.63;83.72;101954.00;10442455;28;20031;-74
2022/03/04 03:25:39;;;;;;;30.65;19.98;;;;;;;0.65;83.24;101955.59;10460431;28;20399;-74
2022/03/04 03:30:39;;;;;;;28.58;19.40;;;;;;;0.55;84.00;101951.03;10442428;28;20033;-74
2022/03/04 03:35:40;;;;;;;44.40;22.58;;;;;;;0.52;83.66;101945.91;10441909;28;20430;-74
2022/03/04 03:40:40;;;;;;;32.45;16.90;;;;;;;0.44;85.23;101960.59;10459358;28;20095;-74
2022/03/04 03:45:41;;;;;;;31.38;19.95;;;;;;;0.47;85.29;101952.41;10460275;28;20071;-74
2022/03/04 03:50:41;;;;;;;22.13;15.73;;;;;;;0.49;84.97;101954.13;10463695;28;20072;-74
2022/03/04 03:55:42;;;;;;;28.20;19.67;;;;;;;0.49;85.01;101951.47;10441271;28;20469;-74
2022/03/04 04:00:42;;;;;;;24.30;16.10;;;;;;;0.44;85.09;101965.09;10422026;28;20041;-74
2022/03/04 04:05:42;;;;;;;19.55;13.82;;;;;;;0.44;85.40;101962.41;10418260;28;20457;-74
2022/03/04 04:10:43;;;;;;;30.40;18.17;;;;;;;0.45;85.13;101969.47;10399819;28;20049;-74
2022/03/04 04:15:43;;;;;;;25.35;13.32;;;;;;;0.43;85.92;101976.72;10417499;28;20030;-74
2022/03/04 04:20:44;;;;;;;26.88;18.15;;;;;;;0.50;85.35;101982.47;10422188;28;20469;-74
2022/03/04 04:25:44;;;;;;;22.65;15.70;;;;;;;0.47;85.98;101978.19;10417097;28;20084;-74
2022/03/04 04:30:44;;;;;;;30.45;16.70;;;;;;;0.38;86.21;101976.16;10418082;28;20053;-74
2022/03/04 04:35:45;;;;;;;30.73;19.95;;;;;;;0.39;86.47;101988.56;10400137;28;20025;-74
2022/03/04 04:40:45;;;;;;;30.80;19.27;;;;;;;0.39;86.55;101985.88;10417897;28;20037;-74
2022/03/04 04:45:46;;;;;;;24.25;17.02;;;;;;;0.36;86.89;101984.28;10399729;28;20116;-74
2022/03/04 04:50:47;;;;;;;28.38;20.77;;;;;;;0.36;86.53;101980.75;10421580;28;20025;-74
2022/03/04 04:55:47;;;;;;;31.67;21.10;;;;;;;0.36;86.82;101991.41;10401204;28;20560;-74
2022/03/04 05:00:53;;;;;;;17.17;12.70;;;;;;;0.32;86.81;101988.13;10420275;28;20057;-74
2022/03/04 05:05:54;;;;;;;27.90;19.98;;;;;;;0.28;87.27;101985.75;10418659;28;20033;-74
2022/03/04 05:10:54;;;;;;;25.75;17.63;;;;;;;0.28;87.09;101991.06;10415862;28;20045;-74
2022/03/04 05:15:55;;;;;;;20.17;16.02;;;;;;;0.22;87.41;101993.22;10416329;28;20034;-74
2022/03/04 05:20:55;;;;;;;39.28;22.10;;;;;;;0.25;87.18;102000.13;10417407;28;20045;-74
2022/03/04 05:25:56;;;;;;;36.65;22.00;;;;;;;0.28;84.62;101996.41;10415180;28;20042;-74
2022/03/04 05:30:56;;;;;;;29.80;18.85;;;;;;;0.11;87.23;102001.06;10416871;28;20041;-74
2022/03/04 05:35:56;;;;;;;33.55;21.20;;;;;;;0.07;87.55;102004.03;10414808;28;20393;-74
2022/03/04 05:40:57;;;;;;;31.58;20.45;;;;;;;0.11;86.84;102003.72;10380728;28;20046;-74
2022/03/04 05:45:57;;;;;;;30.92;20.27;;;;;;;0.10;87.44;102006.50;10397859;28;20049;-74
2022/03/04 05:50:58;;;;;;;30.27;21.77;;;;;;;0.05;87.57;102011.28;10419891;28;20038;-74
2022/03/04 05:56:03;;;;;;;32.03;19.73;;;;;;;0.04;87.75;102010.41;10441809;28;20049;-74
2022/03/04 06:01:06;;;;;;;38.97;22.63;;;;;;;0.11;87.43;102010.88;10427146;28;20042;-74
2022/03/04 06:06:09;;;;;;;32.95;21.30;;;;;;;-0.01;87.98;102017.84;10429314;28;20116;-74
2022/03/04 06:11:10;;;;;;;31.42;19.30;;;;;;;-0.04;88.54;102018.06;10447692;28;20056;-74
2022/03/04 06:16:11;;;;;;;34.67;22.77;;;;;;;-0.05;88.52;102017.19;10463251;28;20048;-74
2022/03/04 06:21:11;;;;;;;26.40;15.13;;;;;;;0.01;88.10;102026.59;10449488;28;20451;-74
2022/03/04 06:26:11;;;;;;;29.02;20.00;;;;;;;0.05;87.42;102021.91;10463630;28;20033;-74
2022/03/04 06:31:12;;;;;;;33.47;19.08;;;;;;;0.11;86.91;102026.84;10444841;28;20428;-73
2022/03/04 06:36:15;;;;;;;31.23;20.63;;;;;;;0.23;87.39;102037.53;10465101;28;20036;-74
2022/03/04 06:41:15;;;;;;;34.20;21.27;;;;;;;0.62;85.84;102049.13;10430327;28;20396;-74
2022/03/04 06:46:16;;;;;;;16.48;11.05;;;;;;;0.95;84.59;102055.75;10461484;28;20037;-74
2022/03/04 06:51:16;;;;;;;26.13;16.92;;;;;;;1.48;82.57;102053.78;10465033;28;20088;-74
2022/03/04 06:56:17;;;;;;;34.10;20.63;;;;;;;2.01;79.91;102056.16;10462025;28;20503;-74
2022/03/04 07:01:17;;;;;;;30.27;17.17;;;;;;;2.54;77.72;102057.47;10462146;28;20387;-74
2022/03/04 07:06:18;;;;;;;28.80;19.25;;;;;;;3.15;75.46;102053.69;10460996;28;20357;-74
2022/03/04 07:11:18;;;;;;;46.60;22.02;;;;;;;3.69;72.75;102061.84;10459183;28;20033;-74
2022/03/04 07:16:19;;;;;;;25.85;19.73;;;;;;;3.92;71.06;102059.97;10443795;28;20528;-74
2022/03/04 07:21:19;;;;;;;23.80;16.65;;;;;;;4.17;70.13;102069.50;10465003;28;20041;-74
2022/03/04 07:26:20;;;;;;;28.10;17.38;;;;;;;4.22;69.71;102069.16;10443999;28;20036;-75
2022/03/04 07:31:20;;;;;;;23.63;16.80;;;;;;;4.49;68.61;102065.13;10461541;28;20474;-74
2022/03/04 07:36:20;;;;;;;33.00;20.13;;;;;;;4.70;67.82;102067.84;10442881;28;20064;-75
2022/03/04 07:41:21;;;;;;;25.05;21.25;;;;;;;4.82;67.06;102064.97;10459982;28;20041;-75
2022/03/04 07:46:22;;;;;;;33.05;18.50;;;;;;;5.28;65.91;102073.53;10441973;28;20035;-75
2022/03/04 07:51:22;;;;;;;29.70;19.20;;;;;;;5.33;64.43;102065.94;10463443;28;20399;-75
2022/03/04 07:56:22;;;;;;;30.48;16.55;;;;;;;5.36;64.66;102073.72;10441570;28;20084;-75
2022/03/04 08:01:23;;;;;;;28.20;18.15;;;;;;;5.61;63.61;102072.38;10459814;28;20389;-75
2022/03/04 08:06:23;;;;;;;33.95;19.85;;;;;;;6.03;61.85;102075.81;10459179;28;20037;-74
2022/03/04 08:11:24;;;;;;;19.23;13.25;;;;;;;6.39;61.32;102080.66;10459053;28;20037;-74
2022/03/04 08:16:25;;;;;;;19.98;17.58;;;;;;;6.46;59.77;102069.16;10460246;28;20029;-75
2022/03/04 08:21:26;;;;;;;21.25;15.65;;;;;;;6.69;58.68;102074.25;10463877;28;20463;-75
2022/03/04 08:26:26;;;;;;;29.27;18.90;;;;;;;6.93;58.36;102092.66;10458395;28;20036;-75
2022/03/04 08:31:27;;;;;;;29.05;16.77;;;;;;;7.00;57.95;102091.06;10424077;28;20064;-75
2022/03/04 08:36:28;;;;;;;26.67;18.27;;;;;;;7.03;56.88;102088.09;10440370;28;20036;-76
2022/03/04 08:41:29;;;;;;;26.25;16.35;;;;;;;6.93;56.51;102092.66;10426642;28;20033;-75
2022/03/04 08:46:30;;;;;;;20.10;14.70;;;;;;;7.13;56.44;102097.00;10461491;28;20105;-76
2022/03/04 08:51:30;;;;;;;22.95;17.42;;;;;;;7.63;55.44;102096.69;10460573;28;20100;-76
2022/03/04 08:56:30;;;;;;;25.48;16.73;;;;;;;8.29;53.25;102082.06;10456633;28;20099;-76
2022/03/04 09:01:31;;;;;;;19.63;12.52;;;;;;;8.40;52.73;102094.53;10457428;28;20048;-75
2022/03/04 09:06:31;;;;;;;28.75;18.48;;;;;;;8.93;52.15;102095.50;10457104;28;20045;-76
2022/03/04 09:11:32;;;;;;;26.15;15.85;;;;;;;9.07;51.72;102093.06;10458476;28;20037;-76
2022/03/04 09:16:32;;;;;;;19.20;16.20;;;;;;;9.63;50.10;102090.00;10461811;28;20035;-76
2022/03/04 09:21:33;;;;;;;25.00;15.85;;;;;;;9.79;49.02;102084.66;10458299;28;20037;-75
2022/03/04 09:26:33;;;;;;;22.83;15.77;;;;;;;9.93;46.72;102091.31;10457356;28;20132;-76
2022/03/04 09:31:34;;;;;;;27.83;16.05;;;;;;;10.28;47.47;102084.84;10423588;28;20469;-76
2022/03/04 09:36:34;;;;;;;25.15;15.52;;;;;;;10.56;45.81;102089.94;10464576;28;20029;-76
2022/03/04 09:41:35;;;;;;;30.63;17.63;;;;;;;10.41;45.65;102093.31;10449431;28;20069;-76
2022/03/04 09:46:35;;;;;;;21.17;15.95;;;;;;;10.88;45.48;102089.97;10452034;28;20033;-76
2022/03/04 09:51:35;;;;;;;22.63;16.65;;;;;;;11.22;45.70;102090.75;10447309;28;20063;-76
2022/03/04 09:56:36;;;;;;;29.77;16.65;;;;;;;10.91;45.35;102095.03;10434600;28;20088;-76
2022/03/04 10:01:36;;;;;;;20.27;15.18;;;;;;;10.71;45.66;102090.97;10390517;28;20061;-75
2022/03/04 10:06:38;;;;;;;25.35;15.55;;;;;;;11.14;44.34;102094.34;10405223;28;20044;-76
2022/03/04 10:11:38;;;;;;;23.88;16.17;;;;;;;11.18;44.89;102082.13;10425921;28;20034;-76
2022/03/04 10:16:40;;;;;;;21.60;14.43;;;;;;;11.26;44.75;102086.66;10405082;28;20469;-76
2022/03/04 10:21:53;;;;;;;26.70;15.05;;;;;;;11.23;45.17;102093.31;10389001;28;20041;-76
2022/03/04 10:27:01;;;;;;;21.00;16.10;;;;;;;11.23;44.97;102082.47;10422291;28;20033;-76
2022/03/04 10:32:05;;;;;;;24.77;16.48;;;;;;;11.41;45.62;102093.06;10404917;28;20068;-76
2022/03/04 10:37:05;;;;;;;28.00;17.50;;;;;;;11.55;44.28;102086.94;10421305;28;20030;-76
2022/03/04 10:42:06;;;;;;;30.83;18.10;;;;;;;11.86;44.31;102088.84;10407065;28;20045;-76
2022/03/04 10:47:06;;;;;;;24.83;17.00;;;;;;;12.18;43.55;102076.97;10401616;28;20060;-76
2022/03/04 10:52:07;;;;;;;27.23;15.02;;;;;;;12.30;43.45;102071.97;10420878;28;20037;-76
2022/03/04 10:57:07;;;;;;;22.52;14.82;;;;;;;12.88;43.37;102078.66;10457344;28;20056;-76
2022/03/04 11:02:07;;;;;;;26.60;13.57;;;;;;;12.72;41.91;102067.91;10461312;28;20037;-76
2022/03/04 11:07:08;;;;;;;23.15;15.73;;;;;;;12.85;41.62;102079.00;10444062;28;20044;-76
2022/03/04 11:12:08;;;;;;;34.38;14.77;;;;;;;12.92;41.18;102074.56;10428289;28;20060;-76
2022/03/04 11:17:09;;;;;;;18.08;14.93;;;;;;;12.70;41.43;102061.81;10443166;28;20112;-76
2022/03/04 11:22:12;;;;;;;23.42;14.40;;;;;;;13.08;40.64;102065.38;10443689;28;20060;-76
2022/03/04 11:27:14;;;;;;;24.23;16.42;;;;;;;13.17;40.96;102066.13;10461388;28;20033;-76
2022/03/04 11:32:15;;;;;;;21.90;14.95;;;;;;;13.87;40.86;102062.94;10459476;28;20052;-76
2022/03/04 11:37:18;;;;;;;19.75;14.43;;;;;;;14.25;39.85;102061.91;10448191;28;20060;-77
2022/03/04 11:42:19;;;;;;;21.33;15.02;;;;;;;14.05;38.40;102067.13;10461449;28;20040;-77
2022/03/04 11:47:20;;;;;;;17.15;12.93;;;;;;;14.24;38.36;102069.22;10461691;28;20041;-76
2022/03/04 11:52:24;;;;;;;20.52;13.90;;;;;;;13.87;37.83;102062.09;10464124;28;20108;-76
2022/03/04 11:57:26;;;;;;;23.73;13.27;;;;;;;13.71;39.29;102055.81;10448391;28;20465;-77
2022/03/04 12:02:29;;;;;;;22.73;13.98;;;;;;;13.95;38.55;102045.66;10463941;28;20140;-76
2022/03/04 12:07:34;;;;;;;18.77;14.15;;;;;;;13.82;39.43;102049.06;10465679;28;20031;-77
2022/03/04 12:12:35;;;;;;;19.33;15.02;;;;;;;13.34;39.19;102045.94;10457904;28;20137;-77
2022/03/04 12:17:59;;;;;;;21.40;14.77;;;;;;;13.22;39.16;102042.78;10441066;28;20129;-77
2022/03/04 12:23:07;;;;;;;18.25;13.93;;;;;;;13.23;39.83;102044.47;10458723;28;20131;-76
2022/03/04 12:28:15;;;;;;;23.33;15.25;;;;;;;13.22;40.24;102042.78;10440911;28;20068;-76
2022/03/04 12:33:15;;;;;;;14.95;12.32;;;;;;;13.26;39.63;102032.41;10428412;28;20045;-76
2022/03/04 12:38:16;;;;;;;21.73;14.02;;;;;;;13.33;40.51;102032.50;10445216;28;20041;-77
2022/03/04 12:43:16;;;;;;;18.77;14.00;;;;;;;13.68;39.68;102019.97;10443122;28;20072;-77
2022/03/04 12:48:17;;;;;;;17.80;13.00;;;;;;;13.91;37.66;102022.53;10440458;28;20123;-78
2022/03/04 12:53:18;;;;;;;24.23;15.25;;;;;;;13.95;36.81;102016.53;10440547;28;20040;-76
2022/03/04 12:58:35;;;;;;;19.40;12.65;;;;;;;14.14;35.58;102014.22;10439770;28;20439;-77
2022/03/04 13:03:35;;;;;;;19.73;14.60;;;;;;;14.23;36.95;102017.66;10439752;28;20037;-77
2022/03/04 13:08:44;;;;;;;18.55;13.90;;;;;;;14.18;36.46;102004.63;10454507;28;20049;-77
2022/03/04 13:13:46;;;;;;;16.70;14.02;;;;;;;13.95;36.80;102007.53;10423810;28;20384;-75
2022/03/04 13:18:47;;;;;;;17.77;13.40;;;;;;;13.99;37.06;102011.53;10423814;28;20391;-77
2022/03/04 13:23:49;;;;;;;20.50;12.45;;;;;;;13.99;36.68;101999.81;10440837;28;20123;-77
2022/03/04 13:29:00;;;;;;;21.02;14.82;;;;;;;13.72;36.56;101997.63;10439831;28;20076;-76
2022/03/04 13:34:05;;;;;;;19.63;13.68;;;;;;;13.96;37.15;101990.97;10463553;28;20061;-78
2022/03/04 13:39:10;;;;;;;14.90;13.23;;;;;;;14.13;38.29;101977.94;10456605;28;20064;-77
2022/03/04 13:44:11;;;;;;;19.08;14.25;;;;;;;13.63;36.74;101984.34;10455468;28;20033;-77
2022/03/04 13:49:12;;;;;;;23.48;13.60;;;;;;;13.33;38.21;101983.53;10438271;28;20037;-77
2022/03/04 13:54:19;;;;;;;23.25;14.43;;;;;;;13.45;36.71;101976.56;10406371;28;20404;-77
2022/03/04 13:59:19;;;;;;;24.10;14.95;;;;;;;13.51;38.41;101975.81;10425412;28;20370;-78
2022/03/04 14:04:20;;;;;;;24.83;13.20;;;;;;;13.56;37.67;101973.38;10426974;28;20041;-77
2022/03/04 14:09:20;;;;;;;24.90;16.42;;;;;;;13.26;37.24;101973.41;10440705;28;20483;-76
2022/03/04 14:14:21;;;;;;;22.05;14.25;;;;;;;13.02;38.02;101974.53;10449074;28;20036;-77
2022/03/04 14:19:22;;;;;;;22.45;15.93;;;;;;;13.09;37.79;101966.44;10455430;28;20058;-77
2022/03/04 14:24:22;;;;;;;17.92;13.00;;;;;;;13.07;38.01;101954.91;10459949;28;20037;-78
2022/03/04 14:29:24;;;;;;;27.88;16.17;;;;;;;12.77;38.06;101971.22;10455904;28;20040;-78
2022/03/04 14:34:25;;;;;;;24.55;14.18;;;;;;;12.61;37.97;101976.81;10455359;28;20044;-75
2022/03/04 14:39:25;;;;;;;22.67;15.05;;;;;;;12.66;38.68;101974.38;10479314;28;20033;-77
2022/03/04 14:44:27;;;;;;;20.50;14.40;;;;;;;12.44;38.84;101976.09;10468256;28;20503;-77
2022/03/04 14:49:27;;;;;;;18.30;14.07;;;;;;;12.49;39.09;101978.28;10463880;28;20115;-78
2022/03/04 14:54:28;;;;;;;18.90;14.40;;;;;;;12.27;39.92;101980.00;10463089;28;20099;-77
2022/03/04 14:59:29;;;;;;;16.33;13.10;;;;;;;12.35;38.79;101977.22;10444108;28;20188;-77
2022/03/04 15:04:30;;;;;;;16.30;14.43;;;;;;;12.37;39.74;101972.44;10411760;28;20032;-77
2022/03/04 15:09:37;;;;;;;19.33;13.32;;;;;;;12.07;39.65;101971.50;10411601;28;20416;-77
2022/03/04 15:14:38;;;;;;;19.27;14.27;;;;;;;11.95;39.88;101960.22;10443594;28;20374;-76
2022/03/04 15:19:40;;;;;;;20.05;14.00;;;;;;;11.62;40.96;101957.69;10462571;28;20029;-77
2022/03/04 15:24:41;;;;;;;24.23;14.57;;;;;;;11.13;41.72;101957.91;10445263;28;20096;-77
2022/03/04 15:29:41;;;;;;;19.45;13.77;;;;;;;10.80;41.98;101951.75;10435645;28;20078;-77
2022/03/04 15:34:42;;;;;;;18.83;12.65;;;;;;;10.71;43.16;101952.78;10442975;28;20036;-76
2022/03/04 15:39:42;;;;;;;15.98;13.55;;;;;;;10.30;43.96;101955.53;10461041;28;20029;-77
2022/03/04 15:44:43;;;;;;;18.67;14.55;;;;;;;10.17;43.42;101955.19;10442235;28;20041;-77
2022/03/04 15:49:46;;;;;;;21.88;15.40;;;;;;;10.17;43.66;101957.88;10443216;28;20033;-77
2022/03/04 15:54:47;;;;;;;22.10;15.18;;;;;;;9.98;43.92;101945.53;10468852;28;20049;-77
2022/03/04 15:59:49;;;;;;;21.73;13.52;;;;;;;9.84;43.86;101946.22;10463557;28;20041;-77
2022/03/04 16:04:49;;;;;;;24.52;15.75;;;;;;;9.78;43.80;101950.41;10459328;28;20433;-77
2022/03/04 16:09:50;;;;;;;18.88;13.23;;;;;;;9.68;44.00;101944.31;10460152;28;20048;-77
2022/03/04 16:14:50;;;;;;;24.70;12.13;;;;;;;9.63;43.91;101952.91;10442711;28;20457;-77
2022/03/04 16:19:51;;;;;;;25.42;13.85;;;;;;;9.59;44.60;101961.53;10425089;28;20120;-77
2022/03/04 16:24:53;;;;;;;17.50;12.23;;;;;;;9.43;44.79;101959.63;10469576;28;20491;-76
2022/03/04 16:29:53;;;;;;;19.63;14.90;;;;;;;9.42;44.83;101953.38;10461978;28;20065;-77
2022/03/04 16:34:54;;;;;;;35.15;15.90;;;;;;;9.30;45.67;101950.13;10466244;28;20025;-77
2022/03/04 16:39:54;;;;;;;20.42;13.98;;;;;;;9.27;45.98;101946.91;10432941;28;20044;-76
2022/03/04 16:44:55;;;;;;;23.02;13.25;;;;;;;9.14;45.75;101958.16;10434281;28;20033;-77
2022/03/04 16:49:57;;;;;;;20.63;12.95;;;;;;;9.06;47.40;101958.13;10445641;28;20476;-77
2022/03/04 16:54:57;;;;;;;24.45;14.75;;;;;;;8.85;49.82;101953.97;10440440;28;20053;-76
2022/03/04 16:59:58;;;;;;;21.75;13.68;;;;;;;8.71;51.05;101957.28;10439223;28;20040;-76
2022/03/04 17:04:58;;;;;;;24.25;15.27;;;;;;;8.63;51.89;101964.47;10439875;28;20121;-76
2022/03/04 17:09:59;;;;;;;23.88;13.63;;;;;;;8.48;52.32;101970.44;10440584;28;20508;-76
2022/03/04 17:14:59;;;;;;;23.90;14.35;;;;;;;8.34;52.89;101970.97;10448502;28;20124;-77
2022/03/04 17:20:01;;;;;;;26.80;16.67;;;;;;;8.16;53.39;101977.22;10452328;28;20037;-76
2022/03/04 17:25:01;;;;;;;31.27;17.77;;;;;;;8.05;53.33;101984.72;10449083;28;20041;-76
2022/03/04 17:30:03;;;;;;;29.65;15.95;;;;;;;7.89;54.19;101988.13;10439219;28;20131;-76
2022/03/04 17:35:04;;;;;;;22.48;15.30;;;;;;;7.80;54.01;101989.03;10422817;28;20530;-76
2022/03/04 17:40:05;;;;;;;34.78;16.48;;;;;;;7.63;54.82;102002.34;10422604;28;20189;-76
2022/03/04 17:45:06;;;;;;;24.75;13.25;;;;;;;7.51;55.92;102005.38;10456980;28;20120;-76
2022/03/04 17:50:07;;;;;;;28.08;15.05;;;;;;;7.34;56.79;102012.41;10463256;28;20076;-76
2022/03/04 17:55:08;;;;;;;28.90;16.05;;;;;;;7.20;57.19;102014.59;10463250;28;20056;-76
2022/03/04 18:00:09;;;;;;;20.33;13.95;;;;;;;7.09;57.58;102017.47;10464803;28;20029;-76
2022/03/04 18:05:10;;;;;;;23.63;14.90;;;;;;;6.97;58.28;102029.44;10446093;28;20041;-75
2022/03/04 18:10:10;;;;;;;19.33;14.52;;;;;;;6.84;59.11;102021.66;10446520;28;20033;-75
2022/03/04 18:15:12;;;;;;;20.55;13.32;;;;;;;6.73;59.75;102021.81;10464922;28;20375;-76
2022/03/04 18:20:12;;;;;;;24.77;15.38;;;;;;;6.67;60.40;102030.50;10454415;28;20040;-75
2022/03/04 18:25:12;;;;;;;27.33;15.95;;;;;;;6.51;61.05;102026.56;10464970;28;20044;-76
2022/03/04 18:30:13;;;;;;;24.27;14.43;;;;;;;6.41;61.38;102033.75;10444716;28;20067;-76
2022/03/04 18:35:13;;;;;;;24.60;15.85;;;;;;;6.36;61.41;102029.81;10461961;28;20068;-76
2022/03/04 18:40:20;;;;;;;18.00;14.35;;;;;;;6.26;61.37;102036.03;10445266;28;20524;-76
2022/03/04 18:50:40;;;;;;;27.85;17.85;;;;;;;6.03;61.47;102040.84;10462817;28;20041;-76
2022/03/04 18:55:41;;;;;;;28.77;15.13;;;;;;;5.92;61.40;102040.94;10467858;28;20052;-76
2022/03/04 19:00:42;;;;;;;20.33;15.30;;;;;;;5.82;61.41;102037.38;10454478;28;20033;-76
2022/03/04 19:05:42;;;;;;;23.73;15.30;;;;;;;5.83;60.75;102041.75;10462132;28;20060;-76
2022/03/04 19:10:43;;;;;;;31.60;15.13;;;;;;;5.71;60.87;102059.84;10461761;28;20495;-75
2022/03/04 19:15:43;;;;;;;22.42;12.27;;;;;;;5.67;60.48;102058.41;10444042;28;20171;-76
2022/03/04 19:20:44;;;;;;;33.08;15.35;;;;;;;5.58;60.45;102052.03;10472535;28;20044;-76
2022/03/04 19:25:44;;;;;;;20.63;13.13;;;;;;;5.49;60.53;102054.69;10427413;28;20131;-75
2022/03/04 19:30:45;;;;;;;22.52;14.65;;;;;;;5.44;60.78;102059.63;10443196;28;20048;-76
2022/03/04 19:35:45;;;;;;;28.90;16.05;;;;;;;5.33;60.76;102064.09;10461046;28;20464;-76
2022/03/04 19:40:46;;;;;;;27.90;15.23;;;;;;;5.33;60.79;102060.56;10458775;28;20112;-75
2022/03/04 19:45:46;;;;;;;24.88;13.40;;;;;;;5.19;61.12;102077.03;10461769;28;20127;-76
2022/03/04 19:50:46;;;;;;;29.08;15.65;;;;;;;5.20;60.98;102055.41;10466060;28;20530;-76
2022/03/04 19:55:47;;;;;;;25.48;15.70;;;;;;;5.00;62.26;102064.34;10470903;28;20053;-76
2022/03/04 20:00:48;;;;;;;22.05;15.13;;;;;;;4.86;63.19;102060.16;10433313;28;20495;-75
2022/03/04 20:05:48;;;;;;;29.92;15.63;;;;;;;4.76;63.71;102059.25;10426374;28;20073;-73
2022/03/04 20:10:48;;;;;;;27.25;15.52;;;;;;;4.62;64.42;102061.25;10443985;28;20487;-75
2022/03/04 20:15:49;;;;;;;20.60;15.30;;;;;;;4.58;65.25;102070.56;10460125;28;20127;-75
2022/03/04 20:20:49;;;;;;;21.55;15.07;;;;;;;4.55;65.38;102075.34;10467676;28;20037;-76
2022/03/04 20:25:51;;;;;;;30.35;15.80;;;;;;;4.46;66.47;102078.78;10460400;28;20437;-76
2022/03/04 20:30:52;;;;;;;21.70;13.65;;;;;;;4.33;67.24;102074.44;10465137;28;20037;-75
2022/03/04 20:35:52;;;;;;;32.40;14.80;;;;;;;4.27;67.58;102074.09;10448324;28;20033;-76
2022/03/04 20:40:52;;;;;;;33.65;14.48;;;;;;;4.18;68.11;102078.44;10461424;28;20044;-75
2022/03/04 20:45:53;;;;;;;22.55;14.10;;;;;;;4.10;68.89;102078.19;10457383;28;20032;-75
2022/03/04 20:50:53;;;;;;;21.65;16.10;;;;;;;4.01;69.31;102076.28;10457736;28;20025;-75
2022/03/04 20:55:54;;;;;;;19.55;12.32;;;;;;;3.90;69.94;102072.66;10440187;28;20547;-75
2022/03/04 21:00:54;;;;;;;27.55;14.20;;;;;;;3.80;70.84;102071.69;10457712;28;20041;-74
2022/03/04 21:05:55;;;;;;;20.02;13.00;;;;;;;3.70;71.43;102068.03;10457947;28;20029;-75
2022/03/04 21:10:55;;;;;;;22.10;15.32;;;;;;;3.64;71.76;102073.91;10457764;28;20473;-75
2022/03/04 21:15:55;;;;;;;34.28;14.52;;;;;;;3.57;72.21;102075.34;10457899;28;20086;-75
2022/03/04 21:20:56;;;;;;;34.92;16.20;;;;;;;3.53;72.12;102074.75;10462897;28;20049;-74
2022/03/04 21:25:56;;;;;;;21.40;13.48;;;;;;;3.38;72.39;102066.13;10458875;28;20056;-75
2022/03/04 21:30:57;;;;;;;27.13;14.70;;;;;;;3.37;72.37;102074.28;10442911;28;20089;-75
2022/03/04 21:35:58;;;;;;;24.42;13.90;;;;;;;3.27;73.04;102087.53;10447792;28;20025;-76
2022/03/04 21:40:59;;;;;;;18.35;12.02;;;;;;;3.18;73.47;102085.59;10465435;28;20512;-76
2022/03/04 21:46:00;;;;;;;16.92;13.18;;;;;;;3.05;74.09;102085.69;10448048;28;20061;-75
2022/03/04 21:51:00;;;;;;;22.85;14.02;;;;;;;2.98;74.39;102085.31;10468046;28;20032;-75
2022/03/04 21:56:00;;;;;;;24.23;15.50;;;;;;;2.81;76.33;102083.09;10449880;28;20049;-75
2022/03/04 22:01:01;;;;;;;19.38;13.13;;;;;;;2.68;76.98;102087.66;10462915;28;20029;-74
2022/03/04 22:06:01;;;;;;;28.10;15.00;;;;;;;2.56;77.38;102084.97;10464639;28;20033;-75
2022/03/04 22:11:02;;;;;;;16.25;12.88;;;;;;;2.48;78.08;102076.66;10446504;28;20032;-75
2022/03/04 22:16:02;;;;;;;17.40;11.23;;;;;;;2.40;78.47;102072.88;10463363;28;20112;-75
2022/03/04 22:21:03;;;;;;;21.38;14.07;;;;;;;2.37;79.11;102079.31;10466371;28;20041;-74
2022/03/04 22:26:05;;;;;;;18.92;13.60;;;;;;;2.33;78.83;102077.84;10467447;28;20056;-75
2022/03/04 22:31:06;;;;;;;25.42;15.40;;;;;;;2.26;78.76;102071.22;10465790;28;20134;-75
2022/03/04 22:36:06;;;;;;;30.58;14.35;;;;;;;2.19;78.99;102061.97;10451948;28;20143;-75
2022/03/04 22:41:06;;;;;;;22.58;14.55;;;;;;;2.20;78.73;102066.34;10448565;28;20457;-74
2022/03/04 22:46:07;;;;;;;19.77;11.30;;;;;;;2.15;78.78;102063.16;10463130;28;20044;-74